sensor_id;sensor_type;location;lat;lon;timestamp;pressure;altitude;pressure_sealevel;temperature;humidity
6034;BME280;3045;43.226;27.858;2022-10-22T00:00:08;80351.56;;;8.60;100.00
6034;BME280;3045;43.226;27.858;2022-10-22T00:02:35;77741.47;;;8.59;100.00
6034;BME280;3045;43.226;27.858;2022-10-22T00:05:03;79055.06;;;8.66;100.00
6034;BME280;3045;43.226;27.858;2022-10-22T00:07:30;70916.38;;;8.70;100.00
6034;BME280;3045;43.226;27.858;2022-10-22T00:09:57;69289.88;;;8.70;100.00
6034;BME280;3045;43.226;27.858;2022-10-22T00:12:25;68315.53;;;8.71;100.00
6034;BME280;3045;43.226;27.858;2022-10-22T00:14:52;70917.00;;;8.71;100.00
6034;BME280;3045;43.226;27.858;2022-10-22T00:17:19;66348.66;;;8.57;100.00
6034;BME280;3045;43.226;27.858;2022-10-22T00:19:46;64405.53;;;8.62;100.00
6034;BME280;3045;43.226;27.858;2022-10-22T00:22:13;66032.38;;;8.64;100.00
6034;BME280;3045;43.226;27.858;2022-10-22T00:24:40;63423.31;;;8.54;100.00
6034;BME280;3045;43.226;27.858;2022-10-22T00:27:09;61482.78;;;8.60;100.00
6034;BME280;3045;43.226;27.858;2022-10-22T00:29:38;58227.94;;;8.48;100.00
6034;BME280;3045;43.226;27.858;2022-10-22T00:32:06;55651.03;;;8.63;100.00
6034;BME280;3045;43.226;27.858;2022-10-22T00:34:33;53059.06;;;8.61;100.00
6034;BME280;3045;43.226;27.858;2022-10-22T00:37:00;56958.19;;;8.75;100.00
6034;BME280;3045;43.226;27.858;2022-10-22T00:39:27;58249.19;;;8.69;100.00
6034;BME280;3045;43.226;27.858;2022-10-22T00:41:57;57928.53;;;8.73;100.00
6034;BME280;3045;43.226;27.858;2022-10-22T00:45:12;57601.38;;;8.70;100.00
6034;BME280;3045;43.226;27.858;2022-10-22T00:47:43;53073.41;;;8.77;100.00
6034;BME280;3045;43.226;27.858;2022-10-22T00:50:14;48545.34;;;8.78;100.00
6034;BME280;3045;43.226;27.858;2022-10-22T00:52:43;49194.13;;;8.81;100.00
6034;BME280;3045;43.226;27.858;2022-10-22T00:55:10;50806.41;;;8.75;100.00
6034;BME280;3045;43.226;27.858;2022-10-22T00:57:38;48222.91;;;8.79;100.00
6034;BME280;3045;43.226;27.858;2022-10-22T01:00:07;48231.81;;;8.90;100.00
6034;BME280;3045;43.226;27.858;2022-10-22T01:02:35;44674.09;;;8.86;100.00
6034;BME280;3045;43.226;27.858;2022-10-22T01:05:02;48230.53;;;8.88;100.00
6034;BME280;3045;43.226;27.858;2022-10-22T01:07:29;48238.13;;;8.97;100.00
6034;BME280;3045;43.226;27.858;2022-10-22T01:10:03;49177.78;;;8.61;100.00
6034;BME280;3045;43.226;27.858;2022-10-22T01:12:41;48533.47;;;8.64;100.00
6034;BME280;3045;43.226;27.858;2022-10-22T01:15:16;48508.81;;;8.35;100.00
6034;BME280;3045;43.226;27.858;2022-10-22T01:17:52;43673.81;;;8.44;100.00
6034;BME280;3045;43.226;27.858;2022-10-22T01:20:39;38843.22;;;8.52;100.00
6034;BME280;3045;43.226;27.858;2022-10-22T01:23:30;37230.53;;;8.49;100.00
6034;BME280;3045;43.226;27.858;2022-10-22T01:26:05;36265.16;;;8.50;100.00
6034;BME280;3045;43.226;27.858;2022-10-22T01:28:48;35306.06;;;8.61;100.00
6034;BME280;3045;43.226;27.858;2022-10-22T01:31:20;36589.75;;;8.54;100.00
6034;BME280;3045;43.226;27.858;2022-10-22T01:33:48;28237.66;;;8.74;100.00
6034;BME280;3045;43.226;27.858;2022-10-22T01:36:18;32739.91;;;8.75;100.00
6034;BME280;3045;43.226;27.858;2022-10-22T01:38:46;35962.47;;;8.81;100.00
6034;BME280;3045;43.226;27.858;2022-10-22T01:41:14;39184.91;;;8.81;100.00
6034;BME280;3045;43.226;27.858;2022-10-22T01:43:41;39176.56;;;8.68;100.00
6034;BME280;3045;43.226;27.858;2022-10-22T01:46:11;40777.81;;;8.53;100.00
6034;BME280;3045;43.226;27.858;2022-10-22T01:48:47;36263.88;;;8.48;100.00
6034;BME280;3045;43.226;27.858;2022-10-22T01:51:32;31760.19;;;8.49;100.00
6034;BME280;3045;43.226;27.858;2022-10-22T01:54:08;30481.50;;;8.62;100.00
6034;BME280;3045;43.226;27.858;2022-10-22T01:56:47;28548.59;;;8.53;100.00
6034;BME280;3045;43.226;27.858;2022-10-22T01:59:23;26940.34;;;8.48;100.00
6034;BME280;3045;43.226;27.858;2022-10-22T02:01:59;22454.72;;;8.63;100.00
6034;BME280;3045;43.226;27.858;2022-10-22T02:04:33;22134.44;;;8.64;100.00
6034;BME280;3045;43.226;27.858;2022-10-22T02:07:04;24381.94;;;8.68;100.00
6034;BME280;3045;43.226;27.858;2022-10-22T02:09:34;27918.16;;;8.77;100.00
6034;BME280;3045;43.226;27.858;2022-10-22T02:12:03;25351.34;;;8.83;100.00
6034;BME280;3045;43.226;27.858;2022-10-22T02:14:33;30802.44;;;8.61;100.00
6034;BME280;3045;43.226;27.858;2022-10-22T02:17:05;34023.50;;;8.69;100.00
6034;BME280;3045;43.226;27.858;2022-10-22T02:19:38;31450.59;;;8.70;100.00
6034;BME280;3045;43.226;27.858;2022-10-22T02:22:07;29526.34;;;8.80;100.00
6034;BME280;3045;43.226;27.858;2022-10-22T02:24:34;29529.03;;;8.85;100.00
6034;BME280;3045;43.226;27.858;2022-10-22T02:27:06;29534.94;;;8.96;100.00
6034;BME280;3045;43.226;27.858;2022-10-22T02:29:40;36612.59;;;8.90;100.00
6034;BME280;3045;43.226;27.858;2022-10-22T02:32:15;38863.56;;;8.82;100.00
6034;BME280;3045;43.226;27.858;2022-10-22T02:34:44;44673.28;;;8.85;100.00
6034;BME280;3045;43.226;27.858;2022-10-22T02:37:12;45003.38;;;8.94;100.00
6034;BME280;3045;43.226;27.858;2022-10-22T02:39:40;45982.69;;;9.06;100.00
6034;BME280;3045;43.226;27.858;2022-10-22T02:42:07;52443.44;;;8.96;100.00
6034;BME280;3045;43.226;27.858;2022-10-22T02:44:36;55041.13;;;9.03;100.00
6034;BME280;3045;43.226;27.858;2022-10-22T02:47:04;54074.34;;;9.09;100.00
6034;BME280;3045;43.226;27.858;2022-10-22T02:49:32;57955.19;;;9.00;100.00
6034;BME280;3045;43.226;27.858;2022-10-22T02:51:59;62169.34;;;8.96;100.00
6034;BME280;3045;43.226;27.858;2022-10-22T02:54:26;62496.75;;;8.98;100.00
6034;BME280;3045;43.226;27.858;2022-10-22T02:56:53;65421.63;;;8.99;100.00
6034;BME280;3045;43.226;27.858;2022-10-22T02:59:20;64773.91;;;9.01;100.00
6034;BME280;3045;43.226;27.858;2022-10-22T03:01:47;73871.47;;;8.91;100.00
6034;BME280;3045;43.226;27.858;2022-10-22T03:04:14;72906.84;;;9.01;100.00
6034;BME280;3045;43.226;27.858;2022-10-22T03:06:42;77149.19;;;9.05;100.00
6034;BME280;3045;43.226;27.858;2022-10-22T03:09:09;79744.34;;;8.94;100.00
6034;BME280;3045;43.226;27.858;2022-10-22T03:11:36;79071.34;;;8.79;100.00
6034;BME280;3045;43.226;27.858;2022-10-22T03:14:03;70298.38;;;8.98;100.00
6034;BME280;3045;43.226;27.858;2022-10-22T03:16:30;70660.38;;;9.28;100.00
6034;BME280;3045;43.226;27.858;2022-10-22T03:18:57;80142.16;;;9.46;100.00
6034;BME280;3045;43.226;27.858;2022-10-22T03:21:29;102087.16;;;9.40;100.00
6034;BME280;3045;43.226;27.858;2022-10-22T03:24:00;102461.34;;;9.67;100.00
6034;BME280;3045;43.226;27.858;2022-10-22T03:26:28;132250.84;;;9.66;100.00
6034;BME280;3045;43.226;27.858;2022-10-22T03:28:55;132844.56;;;9.64;100.00
6034;BME280;3045;43.226;27.858;2022-10-22T03:31:22;147156.31;;;9.82;100.00
6034;BME280;3045;43.226;27.858;2022-10-22T03:33:49;148531.47;;;9.90;100.00
6034;BME280;3045;43.226;27.858;2022-10-22T03:36:16;148563.06;;;10.03;100.00
6034;BME280;3045;43.226;27.858;2022-10-22T03:38:43;148566.88;;;10.04;100.00
6034;BME280;3045;43.226;27.858;2022-10-22T03:41:12;148560.50;;;10.02;100.00
6034;BME280;3045;43.226;27.858;2022-10-22T03:43:39;148499.88;;;9.78;100.00
6034;BME280;3045;43.226;27.858;2022-10-22T03:46:06;148515.06;;;9.84;100.00
6034;BME280;3045;43.226;27.858;2022-10-22T03:48:33;148510.00;;;9.82;100.00
6034;BME280;3045;43.226;27.858;2022-10-22T03:51:00;148499.88;;;9.78;100.00
6034;BME280;3045;43.226;27.858;2022-10-22T03:53:27;148483.50;;;9.71;100.00
6034;BME280;3045;43.226;27.858;2022-10-22T03:55:56;148467.03;;;9.64;100.00
6034;BME280;3045;43.226;27.858;2022-10-22T03:58:24;148378.66;;;9.29;100.00
6034;BME280;3045;43.226;27.858;2022-10-22T04:00:51;148335.75;;;9.12;100.00
6034;BME280;3045;43.226;27.858;2022-10-22T04:03:18;148292.81;;;8.95;100.00
6034;BME280;3045;43.226;27.858;2022-10-22T04:05:45;141508.66;;;8.79;100.00
6034;BME280;3045;43.226;27.858;2022-10-22T04:08:12;112061.16;;;8.18;100.00
6034;BME280;3045;43.226;27.858;2022-10-22T04:10:39;102888.78;;;8.34;100.00
6034;BME280;3045;43.226;27.858;2022-10-22T04:13:06;95671.50;;;8.32;100.00
6034;BME280;3045;43.226;27.858;2022-10-22T04:15:34;95339.91;;;8.29;100.00
6034;BME280;3045;43.226;27.858;2022-10-22T04:18:01;92374.91;;;8.17;100.00
6034;BME280;3045;43.226;27.858;2022-10-22T04:20:28;80307.41;;;8.28;100.00
6034;BME280;3045;43.226;27.858;2022-10-22T04:22:54;74136.63;;;8.43;100.00
6034;BME280;3045;43.226;27.858;2022-10-22T04:25:21;72857.31;;;8.61;100.00
6034;BME280;3045;43.226;27.858;2022-10-22T04:27:48;90539.69;;;9.00;100.00
6034;BME280;3045;43.226;27.858;2022-10-22T04:30:15;111554.47;;;8.99;100.00
6034;BME280;3045;43.226;27.858;2022-10-22T04:32:43;119852.50;;;9.26;100.00
6034;BME280;3045;43.226;27.858;2022-10-22T04:35:10;139961.28;;;9.11;100.00
6034;BME280;3045;43.226;27.858;2022-10-22T04:37:37;132779.03;;;9.35;100.00
6034;BME280;3045;43.226;27.858;2022-10-22T04:40:05;146395.34;;;9.56;100.00
6034;BME280;3045;43.226;27.858;2022-10-22T04:42:32;148503.69;;;9.79;100.00
6034;BME280;3045;43.226;27.858;2022-10-22T04:44:59;148560.50;;;10.02;100.00
6034;BME280;3045;43.226;27.858;2022-10-22T04:47:26;148535.28;;;9.92;100.00
6034;BME280;3045;43.226;27.858;2022-10-22T04:49:54;148640.19;;;10.34;100.00
6034;BME280;3045;43.226;27.858;2022-10-22T04:52:21;148657.88;;;10.41;100.00
6034;BME280;3045;43.226;27.858;2022-10-22T04:54:48;148703.38;;;10.59;100.00
6034;BME280;3045;43.226;27.858;2022-10-22T04:57:15;148727.44;;;10.69;100.00
6034;BME280;3045;43.226;27.858;2022-10-22T04:59:42;148753.94;;;10.79;100.00
6034;BME280;3045;43.226;27.858;2022-10-22T05:02:09;148790.63;;;10.94;100.00
6034;BME280;3045;43.226;27.858;2022-10-22T05:04:35;148853.84;;;11.19;100.00
6034;BME280;3045;43.226;27.858;2022-10-22T05:07:04;148927.22;;;11.49;100.00
6034;BME280;3045;43.226;27.858;2022-10-22T05:09:31;149003.19;;;11.79;100.00
6034;BME280;3045;43.226;27.858;2022-10-22T05:11:58;149061.34;;;12.02;100.00
6034;BME280;3045;43.226;27.858;2022-10-22T05:14:25;149148.69;;;12.37;100.00
6034;BME280;3045;43.226;27.858;2022-10-22T05:16:52;149172.75;;;12.47;100.00
6034;BME280;3045;43.226;27.858;2022-10-22T05:19:21;149253.78;;;12.79;100.00
6034;BME280;3045;43.226;27.858;2022-10-22T05:21:49;149320.91;;;13.06;100.00
6034;BME280;3045;43.226;27.858;2022-10-22T05:24:17;149375.44;;;13.27;100.00
6034;BME280;3045;43.226;27.858;2022-10-22T05:26:44;149481.84;;;13.70;100.00
6034;BME280;3045;43.226;27.858;2022-10-22T05:29:11;149636.47;;;14.32;100.00
6034;BME280;3045;43.226;27.858;2022-10-22T05:31:37;149750.63;;;14.77;100.00
6034;BME280;3045;43.226;27.858;2022-10-22T05:34:05;149909.16;;;15.40;100.00
6034;BME280;3045;43.226;27.858;2022-10-22T05:36:32;150013.31;;;15.82;100.00
6034;BME280;3045;43.226;27.858;2022-10-22T05:38:59;150064.06;;;16.02;100.00
6034;BME280;3045;43.226;27.858;2022-10-22T05:41:28;150221.56;;;16.65;100.00
6034;BME280;3045;43.226;27.858;2022-10-22T05:43:55;150307.94;;;16.99;100.00
6034;BME280;3045;43.226;27.858;2022-10-22T05:46:24;150316.81;;;17.03;100.00
6034;BME280;3045;43.226;27.858;2022-10-22T05:48:53;150233.00;;;16.69;100.00
6034;BME280;3045;43.226;27.858;2022-10-22T05:51:21;150309.19;;;17.00;100.00
6034;BME280;3045;43.226;27.858;2022-10-22T05:53:51;150344.78;;;17.14;100.00
6034;BME280;3045;43.226;27.858;2022-10-22T05:56:18;150371.44;;;17.24;100.00
6034;BME280;3045;43.226;27.858;2022-10-22T05:58:47;150324.47;;;17.06;100.00
6034;BME280;3045;43.226;27.858;2022-10-22T06:01:16;150307.94;;;16.99;100.00
6034;BME280;3045;43.226;27.858;2022-10-22T06:03:44;150280.00;;;16.88;100.00
6034;BME280;3045;43.226;27.858;2022-10-22T06:06:17;150191.03;;;16.53;100.00
6034;BME280;3045;43.226;27.858;2022-10-22T06:08:46;150169.44;;;16.44;100.00
6034;BME280;3045;43.226;27.858;2022-10-22T06:11:13;150122.44;;;16.25;100.00
6034;BME280;3045;43.226;27.858;2022-10-22T06:13:42;150126.28;;;16.27;100.00
6034;BME280;3045;43.226;27.858;2022-10-22T06:16:10;150197.38;;;16.55;100.00
6034;BME280;3045;43.226;27.858;2022-10-22T06:18:37;150222.81;;;16.65;100.00
6034;BME280;3045;43.226;27.858;2022-10-22T06:21:05;150239.38;;;16.72;100.00
6034;BME280;3045;43.226;27.858;2022-10-22T06:23:32;150295.22;;;16.94;100.00
6034;BME280;3045;43.226;27.858;2022-10-22T06:25:59;150396.88;;;17.34;100.00
6034;BME280;3045;43.226;27.858;2022-10-22T06:28:27;150404.50;;;17.38;100.00
6034;BME280;3045;43.226;27.858;2022-10-22T06:30:56;150461.75;;;17.60;100.00
6034;BME280;3045;43.226;27.858;2022-10-22T06:33:25;150501.13;;;17.76;98.81
6034;BME280;3045;43.226;27.858;2022-10-22T06:35:52;150540.50;;;17.92;98.69
6034;BME280;3045;43.226;27.858;2022-10-22T06:38:20;150601.56;;;18.16;97.06
6034;BME280;3045;43.226;27.858;2022-10-22T06:40:47;150644.75;;;18.33;94.39
6034;BME280;3045;43.226;27.858;2022-10-22T06:43:14;150744.00;;;18.73;91.76
6034;BME280;3045;43.226;27.858;2022-10-22T06:45:41;150796.16;;;18.93;90.65
6034;BME280;3045;43.226;27.858;2022-10-22T06:48:08;150825.44;;;19.05;87.90
6034;BME280;3045;43.226;27.858;2022-10-22T06:50:36;150915.75;;;19.41;85.69
6034;BME280;3045;43.226;27.858;2022-10-22T06:53:03;150923.44;;;19.44;84.44
6034;BME280;3045;43.226;27.858;2022-10-22T06:55:30;150973.09;;;19.64;85.11
6034;BME280;3045;43.226;27.858;2022-10-22T06:57:57;151039.31;;;19.90;81.01
6034;BME280;3045;43.226;27.858;2022-10-22T07:00:24;151064.72;;;20.00;80.82
6034;BME280;3045;43.226;27.858;2022-10-22T07:02:51;151052.00;;;19.95;80.71
6034;BME280;3045;43.226;27.858;2022-10-22T07:05:19;151125.81;;;20.24;77.23
6034;BME280;3045;43.226;27.858;2022-10-22T07:07:47;151008.72;;;19.78;80.26
6034;BME280;3045;43.226;27.858;2022-10-22T07:10:15;151069.84;;;20.02;77.61
6034;BME280;3045;43.226;27.858;2022-10-22T07:12:42;151235.41;;;20.68;77.05
6034;BME280;3045;43.226;27.858;2022-10-22T07:15:09;151383.22;;;21.26;70.63
6034;BME280;3045;43.226;27.858;2022-10-22T07:17:36;151475.00;;;21.63;69.01
6034;BME280;3045;43.226;27.858;2022-10-22T07:20:04;151383.22;;;21.26;68.58
6034;BME280;3045;43.226;27.858;2022-10-22T07:22:31;151240.53;;;20.70;70.10
6034;BME280;3045;43.226;27.858;2022-10-22T07:24:59;151249.44;;;20.73;70.72
6034;BME280;3045;43.226;27.858;2022-10-22T07:27:26;151291.47;;;20.90;69.92
6034;BME280;3045;43.226;27.858;2022-10-22T07:29:53;151264.69;;;20.79;68.65
6034;BME280;3045;43.226;27.858;2022-10-22T07:32:20;151265.97;;;20.80;68.99
6034;BME280;3045;43.226;27.858;2022-10-22T07:34:47;151319.47;;;21.01;68.91
6034;BME280;3045;43.226;27.858;2022-10-22T07:37:14;151506.88;;;21.75;64.80
6034;BME280;3045;43.226;27.858;2022-10-22T07:39:41;151509.44;;;21.76;62.73
6034;BME280;3045;43.226;27.858;2022-10-22T07:42:12;151469.88;;;21.61;63.83
6034;BME280;3045;43.226;27.858;2022-10-22T07:44:39;151597.41;;;22.11;62.18
6034;BME280;3045;43.226;27.858;2022-10-22T07:47:06;151588.50;;;22.08;60.26
6034;BME280;3045;43.226;27.858;2022-10-22T07:49:33;151649.69;;;22.32;60.55
6034;BME280;3045;43.226;27.858;2022-10-22T07:52:00;151685.41;;;22.46;58.80
6034;BME280;3045;43.226;27.858;2022-10-22T07:54:28;151802.78;;;22.93;56.11
6034;BME280;3045;43.226;27.858;2022-10-22T07:56:55;151662.44;;;22.37;58.81
6034;BME280;3045;43.226;27.858;2022-10-22T07:59:24;151755.63;;;22.74;58.31
6034;BME280;3045;43.226;27.858;2022-10-22T08:01:51;151904.88;;;23.33;55.02
6034;BME280;3045;43.226;27.858;2022-10-22T08:04:18;152143.63;;;24.28;51.41
6034;BME280;3045;43.226;27.858;2022-10-22T08:06:45;152138.56;;;24.26;51.66
6034;BME280;3045;43.226;27.858;2022-10-22T08:09:12;151924.00;;;23.41;51.47
6034;BME280;3045;43.226;27.858;2022-10-22T08:11:39;151843.59;;;23.09;52.65
6034;BME280;3045;43.226;27.858;2022-10-22T08:14:06;151761.97;;;22.76;54.80
6034;BME280;3045;43.226;27.858;2022-10-22T08:16:34;151625.50;;;22.22;55.20
6034;BME280;3045;43.226;27.858;2022-10-22T08:19:01;151774.75;;;22.82;55.39
6034;BME280;3045;43.226;27.858;2022-10-22T08:21:28;151930.44;;;23.43;53.94
6034;BME280;3045;43.226;27.858;2022-10-22T08:23:55;151791.31;;;22.88;54.25
6034;BME280;3045;43.226;27.858;2022-10-22T08:26:24;151804.06;;;22.93;53.32
6034;BME280;3045;43.226;27.858;2022-10-22T08:28:51;151820.69;;;23.00;52.56
6034;BME280;3045;43.226;27.858;2022-10-22T08:31:18;152081.03;;;24.03;50.47
6034;BME280;3045;43.226;27.858;2022-10-22T08:33:46;152317.38;;;24.96;48.32
6034;BME280;3045;43.226;27.858;2022-10-22T08:36:13;152348.03;;;25.09;47.60
6034;BME280;3045;43.226;27.858;2022-10-22T08:38:40;152415.75;;;25.35;46.78
6034;BME280;3045;43.226;27.858;2022-10-22T08:41:09;152486.06;;;25.63;44.81
6034;BME280;3045;43.226;27.858;2022-10-22T08:44:04;152432.34;;;25.42;44.33
6034;BME280;3045;43.226;27.858;2022-10-22T08:46:46;152434.91;;;25.43;45.35
6034;BME280;3045;43.226;27.858;2022-10-22T08:49:21;152688.13;;;26.43;43.47
6034;BME280;3045;43.226;27.858;2022-10-22T08:51:49;152663.81;;;26.33;42.01
6034;BME280;3045;43.226;27.858;2022-10-22T08:54:29;152460.53;;;25.53;43.24
6034;BME280;3045;43.226;27.858;2022-10-22T08:57:11;152613.94;;;26.14;43.05
6034;BME280;3045;43.226;27.858;2022-10-22T08:59:47;152859.53;;;27.11;40.72
6034;BME280;3045;43.226;27.858;2022-10-22T09:02:29;152762.28;;;26.72;41.47
6034;BME280;3045;43.226;27.858;2022-10-22T09:05:12;152606.22;;;26.11;42.26
6034;BME280;3045;43.226;27.858;2022-10-22T09:07:43;152594.72;;;26.06;42.74
6034;BME280;3045;43.226;27.858;2022-10-22T09:10:15;152801.97;;;26.88;42.19
6034;BME280;3045;43.226;27.858;2022-10-22T09:12:42;152885.09;;;27.21;39.83
6034;BME280;3045;43.226;27.858;2022-10-22T09:15:12;152507.81;;;25.72;41.61
6034;BME280;3045;43.226;27.858;2022-10-22T09:17:49;152693.22;;;26.45;41.61
6034;BME280;3045;43.226;27.858;2022-10-22T09:20:24;152762.28;;;26.72;40.88
6034;BME280;3045;43.226;27.858;2022-10-22T09:23:03;152721.38;;;26.56;40.06
6034;BME280;3045;43.226;27.858;2022-10-22T09:25:32;152491.22;;;25.65;41.94
6034;BME280;3045;43.226;27.858;2022-10-22T09:28:04;152906.84;;;27.30;40.32
6034;BME280;3045;43.226;27.858;2022-10-22T09:30:35;153187.22;;;28.40;38.60
6034;BME280;3045;43.226;27.858;2022-10-22T09:33:10;152899.19;;;27.26;39.53
6034;BME280;3045;43.226;27.858;2022-10-22T09:35:46;152385.09;;;25.23;42.61
6034;BME280;3045;43.226;27.858;2022-10-22T09:38:14;152350.59;;;25.10;43.48
6034;BME280;3045;43.226;27.858;2022-10-22T09:40:43;152143.63;;;24.28;45.38
6034;BME280;3045;43.226;27.858;2022-10-22T09:43:11;151839.81;;;23.07;48.06
6034;BME280;3045;43.226;27.858;2022-10-22T09:45:38;151624.22;;;22.22;51.74
6034;BME280;3045;43.226;27.858;2022-10-22T09:48:10;151511.94;;;21.77;53.94
6034;BME280;3045;43.226;27.858;2022-10-22T09:50:42;151471.16;;;21.61;56.74
6034;BME280;3045;43.226;27.858;2022-10-22T09:53:18;151464.81;;;21.59;57.70
6034;BME280;3045;43.226;27.858;2022-10-22T09:55:49;151413.84;;;21.38;59.49
6034;BME280;3045;43.226;27.858;2022-10-22T09:58:17;151424.03;;;21.42;61.24
6034;BME280;3045;43.226;27.858;2022-10-22T10:00:47;151334.78;;;21.07;58.46
6034;BME280;3045;43.226;27.858;2022-10-22T10:03:18;151333.50;;;21.07;60.15
6034;BME280;3045;43.226;27.858;2022-10-22T10:05:46;151254.50;;;20.75;63.28
6034;BME280;3045;43.226;27.858;2022-10-22T10:08:16;151184.47;;;20.47;63.75
6034;BME280;3045;43.226;27.858;2022-10-22T10:10:47;151155.22;;;20.36;66.45
6034;BME280;3045;43.226;27.858;2022-10-22T10:13:42;151148.81;;;20.33;69.13
6034;BME280;3045;43.226;27.858;2022-10-22T10:16:25;151203.56;;;20.55;67.72
6034;BME280;3045;43.226;27.858;2022-10-22T10:19:03;151237.97;;;20.69;65.16
6034;BME280;3045;43.226;27.858;2022-10-22T10:21:38;151412.56;;;21.38;62.23
6034;BME280;3045;43.226;27.858;2022-10-22T10:24:17;151531.09;;;21.85;60.02
6034;BME280;3045;43.226;27.858;2022-10-22T10:26:53;151630.56;;;22.24;56.82
6034;BME280;3045;43.226;27.858;2022-10-22T10:29:35;151768.34;;;22.79;55.03
6034;BME280;3045;43.226;27.858;2022-10-22T10:32:18;151658.66;;;22.36;55.65
6034;BME280;3045;43.226;27.858;2022-10-22T10:34:55;151602.53;;;22.13;56.04
6034;BME280;3045;43.226;27.858;2022-10-22T10:37:29;151503.03;;;21.74;58.41
6034;BME280;3045;43.226;27.858;2022-10-22T10:40:13;151341.13;;;21.10;61.54
6034;BME280;3045;43.226;27.858;2022-10-22T10:42:48;151300.38;;;20.93;64.59
6034;BME280;3045;43.226;27.858;2022-10-22T10:45:24;151164.09;;;20.39;65.55
6034;BME280;3045;43.226;27.858;2022-10-22T10:48:11;151194.66;;;20.51;66.74
6034;BME280;3045;43.226;27.858;2022-10-22T10:50:52;151178.13;;;20.45;66.82
6034;BME280;3045;43.226;27.858;2022-10-22T10:53:29;151264.69;;;20.79;66.09
6034;BME280;3045;43.226;27.858;2022-10-22T10:56:08;151352.66;;;21.14;63.71
6034;BME280;3045;43.226;27.858;2022-10-22T10:58:45;151350.09;;;21.13;65.92
6034;BME280;3045;43.226;27.858;2022-10-22T11:01:23;151359.06;;;21.17;64.88
6034;BME280;3045;43.226;27.858;2022-10-22T11:06:44;151296.53;;;20.92;63.53
6034;BME280;3045;43.226;27.858;2022-10-22T11:09:22;151316.97;;;21.00;65.10
6034;BME280;3045;43.226;27.858;2022-10-22T11:11:54;151286.34;;;20.88;61.71
6034;BME280;3045;43.226;27.858;2022-10-22T11:14:28;151296.53;;;20.92;63.10
6034;BME280;3045;43.226;27.858;2022-10-22T11:17:00;151294.03;;;20.91;63.60
6034;BME280;3045;43.226;27.858;2022-10-22T11:19:35;151283.84;;;20.87;63.74
6034;BME280;3045;43.226;27.858;2022-10-22T11:22:09;151324.59;;;21.03;64.50
6034;BME280;3045;43.226;27.858;2022-10-22T11:24:43;151327.16;;;21.04;65.34
6034;BME280;3045;43.226;27.858;2022-10-22T11:27:24;151295.31;;;20.91;62.58
6034;BME280;3045;43.226;27.858;2022-10-22T11:30:01;151301.66;;;20.94;62.88
6034;BME280;3045;43.226;27.858;2022-10-22T11:32:29;151288.91;;;20.89;63.19
6034;BME280;3045;43.226;27.858;2022-10-22T11:34:58;151324.59;;;21.03;63.52
6034;BME280;3045;43.226;27.858;2022-10-22T11:37:30;151380.72;;;21.25;62.19
6034;BME280;3045;43.226;27.858;2022-10-22T11:40:02;151365.41;;;21.19;61.80
6034;BME280;3045;43.226;27.858;2022-10-22T11:42:33;151421.50;;;21.41;62.13
6034;BME280;3045;43.226;27.858;2022-10-22T11:45:04;151402.38;;;21.34;58.08
6034;BME280;3045;43.226;27.858;2022-10-22T11:47:34;151376.88;;;21.24;58.54
6034;BME280;3045;43.226;27.858;2022-10-22T11:50:17;151379.44;;;21.25;91.42
6034;BME280;3045;43.226;27.858;2022-10-22T11:52:53;151285.13;;;20.87;99.94
6034;BME280;3045;43.226;27.858;2022-10-22T11:55:30;151278.72;;;20.85;100.00
6034;BME280;3045;43.226;27.858;2022-10-22T11:58:00;151264.69;;;20.79;100.00
6034;BME280;3045;43.226;27.858;2022-10-22T12:00:38;151156.47;;;20.36;100.00
6034;BME280;3045;43.226;27.858;2022-10-22T12:03:15;150974.38;;;19.64;100.00
6034;BME280;3045;43.226;27.858;2022-10-22T12:05:43;150937.44;;;19.49;100.00
6034;BME280;3045;43.226;27.858;2022-10-22T12:08:24;150982.00;;;19.67;100.00
6034;BME280;3045;43.226;27.858;2022-10-22T12:11:03;150998.53;;;19.74;100.00
6034;BME280;3045;43.226;27.858;2022-10-22T12:13:50;151026.56;;;19.85;100.00
6034;BME280;3045;43.226;27.858;2022-10-22T12:16:21;151010.00;;;19.78;100.00
6034;BME280;3045;43.226;27.858;2022-10-22T12:18:55;150996.03;;;19.73;100.00
6034;BME280;3045;43.226;27.858;2022-10-22T12:21:24;150985.84;;;19.69;100.00
6034;BME280;3045;43.226;27.858;2022-10-22T12:23:51;151038.03;;;19.89;100.00
6034;BME280;3045;43.226;27.858;2022-10-22T12:26:26;151101.69;;;20.15;100.00
6034;BME280;3045;43.226;27.858;2022-10-22T12:28:58;151097.84;;;20.13;100.00
6034;BME280;3045;43.226;27.858;2022-10-22T12:31:26;151086.38;;;20.08;100.00
6034;BME280;3045;43.226;27.858;2022-10-22T12:33:56;151032.91;;;19.87;100.00
6034;BME280;3045;43.226;27.858;2022-10-22T12:36:25;151090.22;;;20.10;100.00
6034;BME280;3045;43.226;27.858;2022-10-22T12:38:53;151169.19;;;20.41;93.60
6034;BME280;3045;43.226;27.858;2022-10-22T12:41:20;151203.56;;;20.55;71.53
6034;BME280;3045;43.226;27.858;2022-10-22T12:43:47;151235.41;;;20.68;65.51
6034;BME280;3045;43.226;27.858;2022-10-22T12:46:16;151291.47;;;20.90;64.43
6034;BME280;3045;43.226;27.858;2022-10-22T12:48:44;151329.66;;;21.05;63.10
6034;BME280;3045;43.226;27.858;2022-10-22T12:51:15;151229.06;;;20.65;100.00
6034;BME280;3045;43.226;27.858;2022-10-22T12:53:45;151237.97;;;20.69;100.00
6034;BME280;3045;43.226;27.858;2022-10-22T12:56:15;151162.81;;;20.39;100.00
6034;BME280;3045;43.226;27.858;2022-10-22T12:58:46;151059.66;;;19.98;100.00
6034;BME280;3045;43.226;27.858;2022-10-22T13:01:17;151027.84;;;19.85;100.00
6034;BME280;3045;43.226;27.858;2022-10-22T13:03:46;151018.88;;;19.82;100.00
6034;BME280;3045;43.226;27.858;2022-10-22T13:06:24;150964.19;;;19.60;100.00
6034;BME280;3045;43.226;27.858;2022-10-22T13:09:13;150929.81;;;19.46;100.00
6034;BME280;3045;43.226;27.858;2022-10-22T13:11:48;150853.44;;;19.16;100.00
6034;BME280;3045;43.226;27.858;2022-10-22T13:14:28;150841.97;;;19.11;100.00
6034;BME280;3045;43.226;27.858;2022-10-22T13:17:08;150738.94;;;18.70;100.00
6034;BME280;3045;43.226;27.858;2022-10-22T13:19:40;150732.56;;;18.68;100.00